sensor_id;sensor_type;location;lat;lon;timestamp;P1;durP1;ratioP1;P2;durP2;ratioP2
42726;SDS011;28372;56.832;60.658;2022-09-09T00:04:29;2.22;;;1.23;;
42726;SDS011;28372;56.832;60.658;2022-09-09T00:09:45;1.63;;;1.10;;
42726;SDS011;28372;56.832;60.658;2022-09-09T00:12:24;1.98;;;1.10;;
42726;SDS011;28372;56.832;60.658;2022-09-09T00:15:02;2.38;;;1.15;;
42726;SDS011;28372;56.832;60.658;2022-09-09T00:17:40;1.80;;;1.08;;
42726;SDS011;28372;56.832;60.658;2022-09-09T00:20:16;2.83;;;1.15;;
42726;SDS011;28372;56.832;60.658;2022-09-09T00:23:03;2.45;;;1.30;;
42726;SDS011;28372;56.832;60.658;2022-09-09T00:25:54;3.17;;;1.23;;
42726;SDS011;28372;56.832;60.658;2022-09-09T00:28:38;1.83;;;1.10;;
42726;SDS011;28372;56.832;60.658;2022-09-09T00:31:13;2.63;;;1.10;;
42726;SDS011;28372;56.832;60.658;2022-09-09T00:33:45;4.32;;;1.33;;
42726;SDS011;28372;56.832;60.658;2022-09-09T00:36:16;2.55;;;1.15;;
42726;SDS011;28372;56.832;60.658;2022-09-09T00:38:51;2.22;;;1.10;;
42726;SDS011;28372;56.832;60.658;2022-09-09T00:50:17;2.08;;;1.10;;
42726;SDS011;28372;56.832;60.658;2022-09-09T00:53:15;4.63;;;1.50;;
42726;SDS011;28372;56.832;60.658;2022-09-09T00:58:27;3.45;;;1.40;;
42726;SDS011;28372;56.832;60.658;2022-09-09T01:03:37;3.10;;;1.40;;
42726;SDS011;28372;56.832;60.658;2022-09-09T01:06:36;2.70;;;1.30;;
42726;SDS011;28372;56.832;60.658;2022-09-09T01:14:14;2.85;;;1.48;;
42726;SDS011;28372;56.832;60.658;2022-09-09T01:16:45;2.78;;;1.60;;
42726;SDS011;28372;56.832;60.658;2022-09-09T01:19:20;5.30;;;1.42;;
42726;SDS011;28372;56.832;60.658;2022-09-09T01:27:53;2.03;;;1.38;;
42726;SDS011;28372;56.832;60.658;2022-09-09T01:30:24;3.00;;;1.30;;
42726;SDS011;28372;56.832;60.658;2022-09-09T01:32:56;2.60;;;1.30;;
42726;SDS011;28372;56.832;60.658;2022-09-09T01:38:07;3.22;;;1.40;;
42726;SDS011;28372;56.832;60.658;2022-09-09T01:40:35;3.60;;;1.70;;
42726;SDS011;28372;56.832;60.658;2022-09-09T01:43:03;2.92;;;1.63;;
42726;SDS011;28372;56.832;60.658;2022-09-09T01:45:32;2.97;;;1.85;;
42726;SDS011;28372;56.832;60.658;2022-09-09T01:48:00;3.10;;;1.58;;
42726;SDS011;28372;56.832;60.658;2022-09-09T01:50:45;2.88;;;1.70;;
42726;SDS011;28372;56.832;60.658;2022-09-09T01:53:13;2.40;;;1.40;;
42726;SDS011;28372;56.832;60.658;2022-09-09T01:55:47;3.05;;;1.60;;
42726;SDS011;28372;56.832;60.658;2022-09-09T01:59:18;2.85;;;1.38;;
42726;SDS011;28372;56.832;60.658;2022-09-09T02:13:10;4.00;;;1.50;;
42726;SDS011;28372;56.832;60.658;2022-09-09T02:19:01;5.43;;;2.40;;
42726;SDS011;28372;56.832;60.658;2022-09-09T02:21:58;2.85;;;1.67;;
42726;SDS011;28372;56.832;60.658;2022-09-09T02:24:29;6.45;;;2.90;;
42726;SDS011;28372;56.832;60.658;2022-09-09T02:27:18;4.38;;;2.10;;
42726;SDS011;28372;56.832;60.658;2022-09-09T02:29:49;4.07;;;2.30;;
42726;SDS011;28372;56.832;60.658;2022-09-09T02:32:29;4.15;;;2.17;;
42726;SDS011;28372;56.832;60.658;2022-09-09T02:35:06;3.83;;;2.20;;
42726;SDS011;28372;56.832;60.658;2022-09-09T02:37:39;3.45;;;2.10;;
42726;SDS011;28372;56.832;60.658;2022-09-09T02:40:10;4.38;;;2.30;;
42726;SDS011;28372;56.832;60.658;2022-09-09T02:42:44;7.78;;;2.45;;
42726;SDS011;28372;56.832;60.658;2022-09-09T02:45:14;3.95;;;2.03;;
42726;SDS011;28372;56.832;60.658;2022-09-09T02:48:02;5.65;;;2.50;;
42726;SDS011;28372;56.832;60.658;2022-09-09T02:50:35;3.95;;;2.10;;
42726;SDS011;28372;56.832;60.658;2022-09-09T02:53:30;4.65;;;2.13;;
42726;SDS011;28372;56.832;60.658;2022-09-09T02:56:16;3.85;;;1.98;;
42726;SDS011;28372;56.832;60.658;2022-09-09T02:58:48;5.40;;;2.45;;
42726;SDS011;28372;56.832;60.658;2022-09-09T03:01:16;4.63;;;2.58;;
42726;SDS011;28372;56.832;60.658;2022-09-09T03:03:45;4.15;;;2.35;;
42726;SDS011;28372;56.832;60.658;2022-09-09T03:06:16;6.85;;;2.20;;
42726;SDS011;28372;56.832;60.658;2022-09-09T03:08:49;4.60;;;2.03;;
42726;SDS011;28372;56.832;60.658;2022-09-09T03:11:22;4.93;;;2.35;;
42726;SDS011;28372;56.832;60.658;2022-09-09T03:13:49;4.63;;;2.20;;
42726;SDS011;28372;56.832;60.658;2022-09-09T03:16:19;6.35;;;2.30;;
42726;SDS011;28372;56.832;60.658;2022-09-09T03:18:50;6.82;;;2.45;;
42726;SDS011;28372;56.832;60.658;2022-09-09T03:21:19;7.20;;;2.75;;
42726;SDS011;28372;56.832;60.658;2022-09-09T03:23:47;4.82;;;2.40;;
42726;SDS011;28372;56.832;60.658;2022-09-09T03:26:15;6.03;;;3.08;;
42726;SDS011;28372;56.832;60.658;2022-09-09T03:28:45;6.88;;;2.42;;
42726;SDS011;28372;56.832;60.658;2022-09-09T03:31:16;8.45;;;2.80;;
42726;SDS011;28372;56.832;60.658;2022-09-09T03:33:46;6.88;;;2.88;;
42726;SDS011;28372;56.832;60.658;2022-09-09T03:36:16;7.22;;;2.80;;
42726;SDS011;28372;56.832;60.658;2022-09-09T03:38:44;7.53;;;2.78;;
42726;SDS011;28372;56.832;60.658;2022-09-09T03:41:12;5.18;;;2.42;;
42726;SDS011;28372;56.832;60.658;2022-09-09T03:43:39;7.22;;;2.80;;
42726;SDS011;28372;56.832;60.658;2022-09-09T03:46:08;8.00;;;2.80;;
42726;SDS011;28372;56.832;60.658;2022-09-09T03:48:37;4.47;;;2.78;;
42726;SDS011;28372;56.832;60.658;2022-09-09T03:51:05;7.00;;;2.75;;
42726;SDS011;28372;56.832;60.658;2022-09-09T03:53:34;5.55;;;2.72;;
42726;SDS011;28372;56.832;60.658;2022-09-09T03:56:05;7.68;;;2.83;;
42726;SDS011;28372;56.832;60.658;2022-09-09T03:58:34;6.93;;;2.70;;
42726;SDS011;28372;56.832;60.658;2022-09-09T04:03:37;5.28;;;3.05;;
42726;SDS011;28372;56.832;60.658;2022-09-09T04:06:06;7.68;;;2.80;;
42726;SDS011;28372;56.832;60.658;2022-09-09T04:08:36;4.32;;;2.55;;
42726;SDS011;28372;56.832;60.658;2022-09-09T04:11:05;5.25;;;2.70;;
42726;SDS011;28372;56.832;60.658;2022-09-09T04:13:35;6.07;;;2.50;;
42726;SDS011;28372;56.832;60.658;2022-09-09T04:16:09;6.97;;;3.08;;
42726;SDS011;28372;56.832;60.658;2022-09-09T04:18:39;7.38;;;2.95;;
42726;SDS011;28372;56.832;60.658;2022-09-09T04:21:07;7.05;;;2.95;;
42726;SDS011;28372;56.832;60.658;2022-09-09T04:23:37;4.85;;;2.80;;
42726;SDS011;28372;56.832;60.658;2022-09-09T04:26:05;8.82;;;3.13;;
42726;SDS011;28372;56.832;60.658;2022-09-09T04:28:34;6.40;;;2.80;;
42726;SDS011;28372;56.832;60.658;2022-09-09T04:31:09;6.82;;;2.72;;
42726;SDS011;28372;56.832;60.658;2022-09-09T04:33:42;4.97;;;2.50;;
42726;SDS011;28372;56.832;60.658;2022-09-09T04:36:10;7.13;;;2.63;;
42726;SDS011;28372;56.832;60.658;2022-09-09T04:38:37;6.90;;;2.78;;
42726;SDS011;28372;56.832;60.658;2022-09-09T04:41:05;6.07;;;2.58;;
42726;SDS011;28372;56.832;60.658;2022-09-09T04:43:36;6.35;;;2.70;;
42726;SDS011;28372;56.832;60.658;2022-09-09T04:46:06;7.20;;;2.70;;
42726;SDS011;28372;56.832;60.658;2022-09-09T04:48:34;7.63;;;2.75;;
42726;SDS011;28372;56.832;60.658;2022-09-09T04:51:05;4.68;;;2.40;;
42726;SDS011;28372;56.832;60.658;2022-09-09T04:53:34;5.25;;;2.90;;
42726;SDS011;28372;56.832;60.658;2022-09-09T04:58:35;10.15;;;3.38;;
42726;SDS011;28372;56.832;60.658;2022-09-09T05:01:15;5.75;;;2.50;;
42726;SDS011;28372;56.832;60.658;2022-09-09T05:03:46;7.88;;;2.72;;
42726;SDS011;28372;56.832;60.658;2022-09-09T05:06:18;14.07;;;3.45;;
42726;SDS011;28372;56.832;60.658;2022-09-09T05:08:50;6.95;;;3.53;;
42726;SDS011;28372;56.832;60.658;2022-09-09T05:11:23;5.97;;;2.80;;
42726;SDS011;28372;56.832;60.658;2022-09-09T05:13:58;5.95;;;2.97;;
42726;SDS011;28372;56.832;60.658;2022-09-09T05:16:28;4.30;;;2.58;;
42726;SDS011;28372;56.832;60.658;2022-09-09T05:18:55;5.22;;;2.67;;
42726;SDS011;28372;56.832;60.658;2022-09-09T05:21:24;6.20;;;2.70;;
42726;SDS011;28372;56.832;60.658;2022-09-09T05:23:54;7.45;;;2.75;;
42726;SDS011;28372;56.832;60.658;2022-09-09T05:26:23;5.63;;;2.58;;
42726;SDS011;28372;56.832;60.658;2022-09-09T05:28:52;8.25;;;2.70;;
42726;SDS011;28372;56.832;60.658;2022-09-09T05:31:20;5.55;;;2.50;;
42726;SDS011;28372;56.832;60.658;2022-09-09T05:33:50;5.60;;;2.50;;
42726;SDS011;28372;56.832;60.658;2022-09-09T05:36:19;14.73;;;3.60;;
42726;SDS011;28372;56.832;60.658;2022-09-09T05:38:53;5.93;;;2.63;;
42726;SDS011;28372;56.832;60.658;2022-09-09T05:41:21;8.40;;;2.65;;
42726;SDS011;28372;56.832;60.658;2022-09-09T05:43:53;9.88;;;3.03;;
42726;SDS011;28372;56.832;60.658;2022-09-09T05:46:24;5.85;;;2.50;;
42726;SDS011;28372;56.832;60.658;2022-09-09T05:48:54;5.10;;;2.47;;
42726;SDS011;28372;56.832;60.658;2022-09-09T05:51:27;8.77;;;2.60;;
42726;SDS011;28372;56.832;60.658;2022-09-09T05:54:01;5.35;;;2.40;;
42726;SDS011;28372;56.832;60.658;2022-09-09T05:56:32;6.03;;;2.47;;
42726;SDS011;28372;56.832;60.658;2022-09-09T05:59:00;8.90;;;2.50;;
42726;SDS011;28372;56.832;60.658;2022-09-09T06:01:29;8.00;;;2.60;;
42726;SDS011;28372;56.832;60.658;2022-09-09T06:04:01;5.00;;;2.17;;
42726;SDS011;28372;56.832;60.658;2022-09-09T06:06:31;6.07;;;2.30;;
42726;SDS011;28372;56.832;60.658;2022-09-09T06:09:09;5.63;;;2.47;;
42726;SDS011;28372;56.832;60.658;2022-09-09T06:11:40;17.75;;;3.45;;
42726;SDS011;28372;56.832;60.658;2022-09-09T06:14:09;12.18;;;2.88;;
42726;SDS011;28372;56.832;60.658;2022-09-09T06:16:38;5.57;;;2.08;;
42726;SDS011;28372;56.832;60.658;2022-09-09T06:19:12;5.30;;;2.00;;
42726;SDS011;28372;56.832;60.658;2022-09-09T06:21:40;4.47;;;2.40;;
42726;SDS011;28372;56.832;60.658;2022-09-09T06:24:10;5.63;;;2.10;;
42726;SDS011;28372;56.832;60.658;2022-09-09T06:26:41;13.30;;;2.85;;
42726;SDS011;28372;56.832;60.658;2022-09-09T06:29:12;8.18;;;2.90;;
42726;SDS011;28372;56.832;60.658;2022-09-09T06:31:41;4.55;;;2.33;;
42726;SDS011;28372;56.832;60.658;2022-09-09T06:34:14;5.68;;;1.65;;
42726;SDS011;28372;56.832;60.658;2022-09-09T06:36:46;10.05;;;1.85;;
42726;SDS011;28372;56.832;60.658;2022-09-09T06:39:13;3.58;;;2.10;;
42726;SDS011;28372;56.832;60.658;2022-09-09T06:41:43;5.60;;;2.22;;
42726;SDS011;28372;56.832;60.658;2022-09-09T06:44:29;4.88;;;1.85;;
42726;SDS011;28372;56.832;60.658;2022-09-09T06:49:32;7.95;;;2.17;;
42726;SDS011;28372;56.832;60.658;2022-09-09T06:52:01;8.13;;;1.98;;
42726;SDS011;28372;56.832;60.658;2022-09-09T06:54:29;4.82;;;1.85;;
42726;SDS011;28372;56.832;60.658;2022-09-09T06:56:57;3.60;;;2.00;;
42726;SDS011;28372;56.832;60.658;2022-09-09T06:59:47;3.83;;;1.90;;
42726;SDS011;28372;56.832;60.658;2022-09-09T07:02:15;3.15;;;1.67;;
42726;SDS011;28372;56.832;60.658;2022-09-09T07:04:43;7.05;;;2.10;;
42726;SDS011;28372;56.832;60.658;2022-09-09T07:07:11;7.28;;;2.00;;
42726;SDS011;28372;56.832;60.658;2022-09-09T07:09:41;4.13;;;2.00;;
42726;SDS011;28372;56.832;60.658;2022-09-09T07:12:09;4.20;;;1.80;;
42726;SDS011;28372;56.832;60.658;2022-09-09T07:14:42;5.83;;;1.87;;
42726;SDS011;28372;56.832;60.658;2022-09-09T07:17:09;5.20;;;1.77;;
42726;SDS011;28372;56.832;60.658;2022-09-09T07:19:39;4.40;;;1.70;;
42726;SDS011;28372;56.832;60.658;2022-09-09T07:22:06;4.30;;;2.10;;
42726;SDS011;28372;56.832;60.658;2022-09-09T07:24:34;3.53;;;1.80;;
42726;SDS011;28372;56.832;60.658;2022-09-09T07:27:02;5.28;;;2.10;;
42726;SDS011;28372;56.832;60.658;2022-09-09T07:29:30;3.45;;;1.90;;
42726;SDS011;28372;56.832;60.658;2022-09-09T07:31:58;4.82;;;1.40;;
42726;SDS011;28372;56.832;60.658;2022-09-09T07:34:31;3.47;;;1.20;;
42726;SDS011;28372;56.832;60.658;2022-09-09T07:36:59;3.67;;;1.02;;
42726;SDS011;28372;56.832;60.658;2022-09-09T07:39:27;2.03;;;0.82;;
42726;SDS011;28372;56.832;60.658;2022-09-09T07:41:55;3.15;;;1.13;;
42726;SDS011;28372;56.832;60.658;2022-09-09T07:44:23;2.67;;;1.00;;
42726;SDS011;28372;56.832;60.658;2022-09-09T07:47:15;1.92;;;1.08;;
42726;SDS011;28372;56.832;60.658;2022-09-09T07:49:45;2.40;;;1.20;;
42726;SDS011;28372;56.832;60.658;2022-09-09T07:54:52;3.40;;;1.10;;
42726;SDS011;28372;56.832;60.658;2022-09-09T07:57:19;2.10;;;1.20;;
42726;SDS011;28372;56.832;60.658;2022-09-09T08:00:08;2.42;;;1.30;;
42726;SDS011;28372;56.832;60.658;2022-09-09T08:02:43;1.75;;;1.10;;
42726;SDS011;28372;56.832;60.658;2022-09-09T08:05:11;2.75;;;1.27;;
42726;SDS011;28372;56.832;60.658;2022-09-09T08:07:40;3.08;;;1.70;;
42726;SDS011;28372;56.832;60.658;2022-09-09T08:10:07;3.15;;;1.50;;
42726;SDS011;28372;56.832;60.658;2022-09-09T08:12:37;3.95;;;1.60;;
42726;SDS011;28372;56.832;60.658;2022-09-09T08:15:10;2.53;;;1.40;;
42726;SDS011;28372;56.832;60.658;2022-09-09T08:17:39;3.60;;;1.63;;
42726;SDS011;28372;56.832;60.658;2022-09-09T08:20:07;3.80;;;1.70;;
42726;SDS011;28372;56.832;60.658;2022-09-09T08:22:35;3.20;;;1.60;;
42726;SDS011;28372;56.832;60.658;2022-09-09T08:25:05;4.35;;;1.70;;
42726;SDS011;28372;56.832;60.658;2022-09-09T08:27:35;2.80;;;1.70;;
42726;SDS011;28372;56.832;60.658;2022-09-09T08:30:04;2.90;;;1.70;;
42726;SDS011;28372;56.832;60.658;2022-09-09T08:32:32;2.80;;;1.52;;
42726;SDS011;28372;56.832;60.658;2022-09-09T08:34:59;4.10;;;2.00;;
42726;SDS011;28372;56.832;60.658;2022-09-09T08:37:29;5.88;;;2.25;;
42726;SDS011;28372;56.832;60.658;2022-09-09T08:39:56;4.88;;;1.90;;
42726;SDS011;28372;56.832;60.658;2022-09-09T08:42:35;4.30;;;1.60;;
42726;SDS011;28372;56.832;60.658;2022-09-09T08:48:20;3.25;;;1.55;;
42726;SDS011;28372;56.832;60.658;2022-09-09T08:51:10;2.30;;;1.27;;
42726;SDS011;28372;56.832;60.658;2022-09-09T08:53:42;2.58;;;1.00;;
42726;SDS011;28372;56.832;60.658;2022-09-09T08:56:16;2.00;;;1.00;;
42726;SDS011;28372;56.832;60.658;2022-09-09T08:58:52;2.03;;;0.80;;
42726;SDS011;28372;56.832;60.658;2022-09-09T09:10:26;1.73;;;0.60;;
42726;SDS011;28372;56.832;60.658;2022-09-09T09:13:15;2.17;;;0.77;;
42726;SDS011;28372;56.832;60.658;2022-09-09T09:15:55;2.53;;;0.70;;
42726;SDS011;28372;56.832;60.658;2022-09-09T09:18:44;2.45;;;0.95;;
42726;SDS011;28372;56.832;60.658;2022-09-09T09:21:14;2.70;;;1.05;;
42726;SDS011;28372;56.832;60.658;2022-09-09T09:23:58;2.17;;;0.80;;
42726;SDS011;28372;56.832;60.658;2022-09-09T09:26:31;1.83;;;0.90;;
42726;SDS011;28372;56.832;60.658;2022-09-09T09:29:09;1.70;;;0.90;;
42726;SDS011;28372;56.832;60.658;2022-09-09T09:31:47;4.30;;;1.27;;
42726;SDS011;28372;56.832;60.658;2022-09-09T09:34:19;2.47;;;1.13;;
42726;SDS011;28372;56.832;60.658;2022-09-09T09:36:56;4.07;;;1.08;;
42726;SDS011;28372;56.832;60.658;2022-09-09T09:39:30;2.28;;;1.15;;
42726;SDS011;28372;56.832;60.658;2022-09-09T09:42:23;3.08;;;1.30;;
42726;SDS011;28372;56.832;60.658;2022-09-09T09:44:55;1.63;;;0.82;;
42726;SDS011;28372;56.832;60.658;2022-09-09T09:47:22;3.13;;;1.30;;
42726;SDS011;28372;56.832;60.658;2022-09-09T09:50:16;3.35;;;1.33;;
42726;SDS011;28372;56.832;60.658;2022-09-09T09:52:55;3.45;;;1.30;;
42726;SDS011;28372;56.832;60.658;2022-09-09T09:55:26;2.67;;;1.23;;
42726;SDS011;28372;56.832;60.658;2022-09-09T09:58:05;3.63;;;1.33;;
42726;SDS011;28372;56.832;60.658;2022-09-09T10:00:37;2.50;;;1.20;;
42726;SDS011;28372;56.832;60.658;2022-09-09T10:03:23;3.42;;;1.30;;
42726;SDS011;28372;56.832;60.658;2022-09-09T10:05:57;2.10;;;1.10;;
42726;SDS011;28372;56.832;60.658;2022-09-09T10:08:25;3.92;;;1.20;;
42726;SDS011;28372;56.832;60.658;2022-09-09T10:19:15;2.92;;;1.13;;
42726;SDS011;28372;56.832;60.658;2022-09-09T10:30:39;2.00;;;1.10;;
42726;SDS011;28372;56.832;60.658;2022-09-09T10:33:33;4.25;;;1.40;;
42726;SDS011;28372;56.832;60.658;2022-09-09T10:36:29;2.35;;;1.10;;
42726;SDS011;28372;56.832;60.658;2022-09-09T10:47:24;1.13;;;0.70;;
42726;SDS011;28372;56.832;60.658;2022-09-09T10:53:52;0.93;;;0.50;;
42726;SDS011;28372;56.832;60.658;2022-09-09T10:56:21;1.40;;;0.50;;
42726;SDS011;28372;56.832;60.658;2022-09-09T10:58:55;1.02;;;0.60;;
42726;SDS011;28372;56.832;60.658;2022-09-09T11:04:11;3.28;;;0.73;;
42726;SDS011;28372;56.832;60.658;2022-09-09T11:06:45;3.60;;;0.88;;
42726;SDS011;28372;56.832;60.658;2022-09-09T11:09:21;2.55;;;0.73;;
42726;SDS011;28372;56.832;60.658;2022-09-09T11:11:56;2.28;;;0.77;;
42726;SDS011;28372;56.832;60.658;2022-09-09T11:14:26;2.63;;;0.70;;
42726;SDS011;28372;56.832;60.658;2022-09-09T11:17:18;2.10;;;0.93;;
42726;SDS011;28372;56.832;60.658;2022-09-09T11:19:48;2.83;;;0.90;;
42726;SDS011;28372;56.832;60.658;2022-09-09T11:22:18;2.60;;;0.70;;
42726;SDS011;28372;56.832;60.658;2022-09-09T11:30:58;2.90;;;0.90;;
42726;SDS011;28372;56.832;60.658;2022-09-09T11:38:52;3.00;;;1.45;;
42726;SDS011;28372;56.832;60.658;2022-09-09T11:41:32;2.08;;;1.02;;
42726;SDS011;28372;56.832;60.658;2022-09-09T11:44:10;1.98;;;1.10;;
42726;SDS011;28372;56.832;60.658;2022-09-09T11:46:40;3.15;;;0.80;;
42726;SDS011;28372;56.832;60.658;2022-09-09T11:49:42;1.75;;;0.82;;
42726;SDS011;28372;56.832;60.658;2022-09-09T11:55:31;2.95;;;1.00;;
42726;SDS011;28372;56.832;60.658;2022-09-09T11:58:00;2.65;;;1.15;;
42726;SDS011;28372;56.832;60.658;2022-09-09T12:00:39;2.40;;;0.90;;
42726;SDS011;28372;56.832;60.658;2022-09-09T12:08:44;3.55;;;1.80;;
42726;SDS011;28372;56.832;60.658;2022-09-09T12:11:28;1.83;;;0.90;;
42726;SDS011;28372;56.832;60.658;2022-09-09T12:14:01;2.72;;;0.90;;
42726;SDS011;28372;56.832;60.658;2022-09-09T12:16:30;2.72;;;1.10;;
42726;SDS011;28372;56.832;60.658;2022-09-09T12:19:05;1.20;;;0.73;;
42726;SDS011;28372;56.832;60.658;2022-09-09T12:21:39;2.22;;;1.20;;
42726;SDS011;28372;56.832;60.658;2022-09-09T12:24:49;3.28;;;1.83;;
42726;SDS011;28372;56.832;60.658;2022-09-09T12:27:36;2.55;;;0.93;;
42726;SDS011;28372;56.832;60.658;2022-09-09T12:30:14;1.95;;;1.08;;
42726;SDS011;28372;56.832;60.658;2022-09-09T12:32:43;4.43;;;1.10;;
42726;SDS011;28372;56.832;60.658;2022-09-09T12:35:20;1.90;;;0.70;;
42726;SDS011;28372;56.832;60.658;2022-09-09T12:37:58;2.10;;;0.98;;
42726;SDS011;28372;56.832;60.658;2022-09-09T12:42:58;1.83;;;0.90;;
42726;SDS011;28372;56.832;60.658;2022-09-09T12:45:29;2.40;;;0.80;;
42726;SDS011;28372;56.832;60.658;2022-09-09T12:48:08;2.35;;;0.90;;
42726;SDS011;28372;56.832;60.658;2022-09-09T12:53:21;1.73;;;0.77;;
42726;SDS011;28372;56.832;60.658;2022-09-09T12:56:00;3.17;;;1.58;;
42726;SDS011;28372;56.832;60.658;2022-09-09T12:58:31;1.23;;;0.70;;
42726;SDS011;28372;56.832;60.658;2022-09-09T13:01:00;1.52;;;0.70;;
42726;SDS011;28372;56.832;60.658;2022-09-09T13:03:32;1.42;;;0.70;;
42726;SDS011;28372;56.832;60.658;2022-09-09T13:06:10;2.88;;;0.90;;
42726;SDS011;28372;56.832;60.658;2022-09-09T13:08:41;1.73;;;0.90;;
42726;SDS011;28372;56.832;60.658;2022-09-09T13:13:56;1.75;;;0.90;;
42726;SDS011;28372;56.832;60.658;2022-09-09T13:16:28;3.83;;;1.10;;
42726;SDS011;28372;56.832;60.658;2022-09-09T13:19:10;2.95;;;1.20;;
42726;SDS011;28372;56.832;60.658;2022-09-09T13:21:43;2.15;;;0.85;;
42726;SDS011;28372;56.832;60.658;2022-09-09T13:27:26;4.95;;;2.20;;
42726;SDS011;28372;56.832;60.658;2022-09-09T13:29:57;2.80;;;1.10;;
42726;SDS011;28372;56.832;60.658;2022-09-09T13:32:25;3.15;;;1.42;;
42726;SDS011;28372;56.832;60.658;2022-09-09T13:34:56;3.38;;;1.30;;
42726;SDS011;28372;56.832;60.658;2022-09-09T13:37:35;3.38;;;1.50;;
42726;SDS011;28372;56.832;60.658;2022-09-09T13:40:04;4.30;;;1.20;;
42726;SDS011;28372;56.832;60.658;2022-09-09T13:42:34;3.72;;;1.70;;
42726;SDS011;28372;56.832;60.658;2022-09-09T13:45:19;3.47;;;1.70;;
42726;SDS011;28372;56.832;60.658;2022-09-09T13:47:49;3.60;;;1.88;;
42726;SDS011;28372;56.832;60.658;2022-09-09T13:50:23;2.17;;;0.90;;
42726;SDS011;28372;56.832;60.658;2022-09-09T13:52:54;3.20;;;1.02;;
42726;SDS011;28372;56.832;60.658;2022-09-09T13:55:25;4.43;;;1.00;;
42726;SDS011;28372;56.832;60.658;2022-09-09T14:00:31;1.90;;;0.70;;
42726;SDS011;28372;56.832;60.658;2022-09-09T14:03:01;2.90;;;0.93;;
42726;SDS011;28372;56.832;60.658;2022-09-09T14:05:31;1.55;;;0.80;;
42726;SDS011;28372;56.832;60.658;2022-09-09T14:08:00;2.28;;;0.73;;
42726;SDS011;28372;56.832;60.658;2022-09-09T14:10:31;4.10;;;1.20;;
42726;SDS011;28372;56.832;60.658;2022-09-09T14:12:58;2.67;;;1.00;;
42726;SDS011;28372;56.832;60.658;2022-09-09T14:15:26;3.22;;;1.50;;
42726;SDS011;28372;56.832;60.658;2022-09-09T14:17:54;2.72;;;1.40;;
42726;SDS011;28372;56.832;60.658;2022-09-09T14:20:21;2.45;;;1.20;;
42726;SDS011;28372;56.832;60.658;2022-09-09T14:22:49;3.03;;;1.30;;
42726;SDS011;28372;56.832;60.658;2022-09-09T14:25:16;4.05;;;1.60;;
42726;SDS011;28372;56.832;60.658;2022-09-09T14:27:44;4.90;;;2.40;;
42726;SDS011;28372;56.832;60.658;2022-09-09T14:30:12;4.82;;;2.17;;
42726;SDS011;28372;56.832;60.658;2022-09-09T14:32:40;3.38;;;1.42;;
42726;SDS011;28372;56.832;60.658;2022-09-09T14:35:07;2.97;;;1.63;;
42726;SDS011;28372;56.832;60.658;2022-09-09T14:37:35;3.33;;;1.58;;
42726;SDS011;28372;56.832;60.658;2022-09-09T14:40:03;3.63;;;1.40;;
42726;SDS011;28372;56.832;60.658;2022-09-09T14:42:31;2.83;;;1.50;;
42726;SDS011;28372;56.832;60.658;2022-09-09T14:44:58;2.75;;;1.38;;
42726;SDS011;28372;56.832;60.658;2022-09-09T14:47:26;3.85;;;1.40;;
42726;SDS011;28372;56.832;60.658;2022-09-09T14:49:53;3.53;;;1.30;;
42726;SDS011;28372;56.832;60.658;2022-09-09T14:52:21;4.93;;;1.20;;
42726;SDS011;28372;56.832;60.658;2022-09-09T14:54:48;3.05;;;1.30;;
42726;SDS011;28372;56.832;60.658;2022-09-09T14:57:16;3.00;;;1.35;;
42726;SDS011;28372;56.832;60.658;2022-09-09T14:59:44;3.88;;;1.60;;
42726;SDS011;28372;56.832;60.658;2022-09-09T15:02:11;3.10;;;1.40;;
42726;SDS011;28372;56.832;60.658;2022-09-09T15:04:40;3.22;;;1.70;;
42726;SDS011;28372;56.832;60.658;2022-09-09T15:07:08;3.38;;;1.33;;
42726;SDS011;28372;56.832;60.658;2022-09-09T15:09:35;4.90;;;1.65;;
42726;SDS011;28372;56.832;60.658;2022-09-09T15:12:04;5.40;;;2.33;;
42726;SDS011;28372;56.832;60.658;2022-09-09T15:14:31;5.03;;;1.58;;
42726;SDS011;28372;56.832;60.658;2022-09-09T15:16:59;3.72;;;1.70;;
42726;SDS011;28372;56.832;60.658;2022-09-09T15:19:27;2.78;;;1.25;;
42726;SDS011;28372;56.832;60.658;2022-09-09T15:21:55;3.72;;;1.20;;
42726;SDS011;28372;56.832;60.658;2022-09-09T15:24:22;4.50;;;1.67;;
42726;SDS011;28372;56.832;60.658;2022-09-09T15:26:50;4.03;;;1.40;;
42726;SDS011;28372;56.832;60.658;2022-09-09T15:29:17;4.35;;;1.58;;
42726;SDS011;28372;56.832;60.658;2022-09-09T15:31:45;4.80;;;1.63;;
42726;SDS011;28372;56.832;60.658;2022-09-09T15:34:13;2.70;;;1.10;;
42726;SDS011;28372;56.832;60.658;2022-09-09T15:36:42;4.63;;;2.00;;
42726;SDS011;28372;56.832;60.658;2022-09-09T15:39:13;3.88;;;1.77;;
42726;SDS011;28372;56.832;60.658;2022-09-09T15:41:44;3.28;;;1.40;;
42726;SDS011;28372;56.832;60.658;2022-09-09T15:44:12;5.35;;;1.80;;
42726;SDS011;28372;56.832;60.658;2022-09-09T15:46:41;4.45;;;2.15;;
42726;SDS011;28372;56.832;60.658;2022-09-09T15:49:27;3.65;;;1.60;;
42726;SDS011;28372;56.832;60.658;2022-09-09T15:51:55;7.60;;;4.28;;
42726;SDS011;28372;56.832;60.658;2022-09-09T15:54:25;5.82;;;3.17;;
42726;SDS011;28372;56.832;60.658;2022-09-09T15:56:54;7.40;;;2.15;;
42726;SDS011;28372;56.832;60.658;2022-09-09T15:59:23;7.22;;;2.00;;
42726;SDS011;28372;56.832;60.658;2022-09-09T16:01:52;6.50;;;3.00;;
42726;SDS011;28372;56.832;60.658;2022-09-09T16:04:20;5.38;;;2.00;;
42726;SDS011;28372;56.832;60.658;2022-09-09T16:09:20;5.85;;;2.45;;
42726;SDS011;28372;56.832;60.658;2022-09-09T16:11:48;7.68;;;3.78;;
42726;SDS011;28372;56.832;60.658;2022-09-09T16:14:15;7.40;;;2.10;;
42726;SDS011;28372;56.832;60.658;2022-09-09T16:16:43;4.38;;;2.10;;
42726;SDS011;28372;56.832;60.658;2022-09-09T16:19:11;7.35;;;2.63;;
42726;SDS011;28372;56.832;60.658;2022-09-09T16:21:41;8.82;;;3.63;;
42726;SDS011;28372;56.832;60.658;2022-09-09T16:24:11;4.60;;;2.75;;
42726;SDS011;28372;56.832;60.658;2022-09-09T16:26:41;5.65;;;3.22;;
42726;SDS011;28372;56.832;60.658;2022-09-09T16:29:12;9.05;;;3.22;;
42726;SDS011;28372;56.832;60.658;2022-09-09T16:31:41;9.45;;;3.17;;
42726;SDS011;28372;56.832;60.658;2022-09-09T16:34:09;7.20;;;2.88;;
42726;SDS011;28372;56.832;60.658;2022-09-09T16:36:38;6.20;;;3.33;;
42726;SDS011;28372;56.832;60.658;2022-09-09T16:39:08;8.55;;;3.40;;
42726;SDS011;28372;56.832;60.658;2022-09-09T16:41:38;6.97;;;2.63;;
42726;SDS011;28372;56.832;60.658;2022-09-09T16:44:07;6.55;;;2.80;;
42726;SDS011;28372;56.832;60.658;2022-09-09T16:46:36;7.75;;;3.35;;
42726;SDS011;28372;56.832;60.658;2022-09-09T16:49:07;7.68;;;3.13;;
42726;SDS011;28372;56.832;60.658;2022-09-09T16:51:40;5.57;;;2.75;;
42726;SDS011;28372;56.832;60.658;2022-09-09T16:54:09;6.75;;;2.67;;
42726;SDS011;28372;56.832;60.658;2022-09-09T16:56:39;7.25;;;2.75;;
42726;SDS011;28372;56.832;60.658;2022-09-09T16:59:09;5.68;;;2.78;;
42726;SDS011;28372;56.832;60.658;2022-09-09T17:01:39;6.90;;;3.17;;
42726;SDS011;28372;56.832;60.658;2022-09-09T17:04:09;4.90;;;2.90;;
42726;SDS011;28372;56.832;60.658;2022-09-09T17:06:38;8.02;;;2.88;;
42726;SDS011;28372;56.832;60.658;2022-09-09T17:09:06;6.00;;;2.70;;
42726;SDS011;28372;56.832;60.658;2022-09-09T17:11:36;7.65;;;3.10;;
42726;SDS011;28372;56.832;60.658;2022-09-09T17:14:06;6.10;;;2.80;;
42726;SDS011;28372;56.832;60.658;2022-09-09T17:16:36;6.50;;;3.00;;
42726;SDS011;28372;56.832;60.658;2022-09-09T17:19:06;5.10;;;2.83;;
42726;SDS011;28372;56.832;60.658;2022-09-09T17:21:36;7.55;;;3.28;;
42726;SDS011;28372;56.832;60.658;2022-09-09T17:24:25;8.48;;;3.60;;